Time;durP1;ratioP1;P1;durP2;ratioP2;P2;SDS_P1;SDS_P2;PMS_P1;PMS_P2;Temp;Humidity;BMP_temperature;BMP_pressure;BME280_temperature;BME280_humidity;BME280_pressure;Samples;Min_cycle;Max_cycle;Signal;HPM_P1;HPM_P2
2022/06/26 00:01:09;;;;;;;10.18;7.55;;;18.10;99.90;;;;;;5011513;28;20056;-83
2022/06/26 00:03:35;;;;;;;12.55;8.15;;;18.10;99.90;;;;;;5011371;28;20081;-83
2022/06/26 00:06:01;;;;;;;8.93;8.02;;;18.10;99.90;;;;;;5011631;28;20121;-83
2022/06/26 00:08:26;;;;;;;12.90;9.02;;;18.10;99.90;;;;;;5012093;28;20038;-83
2022/06/26 00:10:52;;;;;;;12.98;9.93;;;18.00;99.90;;;;;;5012171;28;20052;-83
2022/06/26 00:13:18;;;;;;;17.48;9.50;;;18.00;99.90;;;;;;5013977;28;20081;-84
2022/06/26 00:15:44;;;;;;;13.77;10.18;;;18.00;99.90;;;;;;4996101;28;20060;-83
2022/06/26 00:18:10;;;;;;;14.45;12.23;;;18.00;99.90;;;;;;5012575;28;20409;-84
2022/06/26 00:20:37;;;;;;;16.73;12.27;;;18.00;99.90;;;;;;5012193;28;20125;-83
2022/06/26 00:23:03;;;;;;;16.52;12.00;;;18.00;99.90;;;;;;5012194;28;20113;-84
2022/06/26 00:25:29;;;;;;;16.08;11.70;;;18.00;99.90;;;;;;5017802;28;20076;-82
2022/06/26 00:27:55;;;;;;;17.98;13.13;;;18.00;99.90;;;;;;5021161;28;20038;-84
2022/06/26 00:30:21;;;;;;;12.55;10.40;;;18.00;99.90;;;;;;5022145;28;20117;-84
2022/06/26 00:32:47;;;;;;;19.00;12.82;;;18.00;99.90;;;;;;5003777;28;20045;-84
2022/06/26 00:35:13;;;;;;;15.55;12.27;;;18.00;99.90;;;;;;5018972;28;20049;-84
2022/06/26 00:37:39;;;;;;;13.43;11.80;;;18.00;99.90;;;;;;5019419;28;20113;-84
2022/06/26 00:40:05;;;;;;;17.23;12.32;;;18.00;99.90;;;;;;5023933;28;20040;-84
2022/06/26 00:42:31;;;;;;;14.38;11.75;;;17.90;99.90;;;;;;5013183;28;20088;-83
2022/06/26 00:44:57;;;;;;;13.77;11.43;;;17.90;99.90;;;;;;5003843;28;20050;-84
2022/06/26 00:47:23;;;;;;;12.65;11.35;;;17.90;99.90;;;;;;5011734;28;20053;-84
2022/06/26 00:49:49;;;;;;;16.30;11.20;;;17.90;99.90;;;;;;5010865;28;20331;-83
2022/06/26 00:52:16;;;;;;;12.23;10.63;;;17.90;99.90;;;;;;4994616;28;20049;-83
2022/06/26 00:54:42;;;;;;;12.90;10.48;;;17.90;99.90;;;;;;5010921;28;20420;-84
2022/06/26 00:57:08;;;;;;;14.88;11.57;;;17.80;99.90;;;;;;5010745;28;20049;-83
2022/06/26 00:59:35;;;;;;;11.38;10.18;;;17.80;99.90;;;;;;4994275;28;20127;-83
2022/06/26 01:02:01;;;;;;;13.27;10.15;;;17.80;99.90;;;;;;5010891;28;20447;-84
2022/06/26 01:04:27;;;;;;;13.75;10.82;;;17.70;99.90;;;;;;5013043;28;20046;-84
2022/06/26 01:06:53;;;;;;;12.98;11.07;;;17.70;99.90;;;;;;5010406;28;20523;-83
2022/06/26 01:09:18;;;;;;;13.75;10.00;;;17.70;99.90;;;;;;5010112;28;20034;-83
2022/06/26 01:11:45;;;;;;;18.27;11.75;;;17.70;99.90;;;;;;5009838;28;20128;-83
2022/06/26 01:14:11;;;;;;;12.38;10.93;;;17.70;99.90;;;;;;5009933;28;20120;-83
2022/06/26 01:16:40;;;;;;;12.95;11.13;;;17.70;99.90;;;;;;4992922;28;20089;-83
2022/06/26 01:19:07;;;;;;;18.58;12.35;;;17.70;99.90;;;;;;5008163;28;20034;-83
2022/06/26 01:21:34;;;;;;;17.95;13.90;;;17.70;99.90;;;;;;4976639;28;20052;-84
2022/06/26 01:24:01;;;;;;;16.42;14.05;;;17.80;99.90;;;;;;4992216;28;20593;-83
2022/06/26 01:26:27;;;;;;;18.33;13.40;;;17.80;99.90;;;;;;5008576;28;20048;-83
2022/06/26 01:28:53;;;;;;;16.50;12.95;;;17.80;99.90;;;;;;5010239;28;20042;-83
2022/06/26 01:31:19;;;;;;;15.50;12.73;;;17.80;99.90;;;;;;5007864;28;20085;-83
2022/06/26 01:33:49;;;;;;;18.55;13.35;;;17.90;99.90;;;;;;5008562;28;20409;-82
2022/06/26 01:36:16;;;;;;;14.82;12.55;;;18.00;99.90;;;;;;5007942;28;20038;-82
2022/06/26 01:38:42;;;;;;;18.23;13.02;;;18.00;99.90;;;;;;4992532;28;20050;-82
2022/06/26 01:41:08;;;;;;;20.70;12.40;;;18.10;99.90;;;;;;4991783;28;20046;-82
2022/06/26 01:43:36;;;;;;;14.73;11.65;;;18.10;99.90;;;;;;5008137;28;20041;-82
2022/06/26 01:46:03;;;;;;;15.80;11.77;;;18.20;99.90;;;;;;5008718;28;20440;-82
2022/06/26 01:48:30;;;;;;;11.63;9.88;;;18.20;99.90;;;;;;5007446;28;20081;-82
2022/06/26 01:50:58;;;;;;;14.55;10.88;;;18.20;99.90;;;;;;5008197;28;20054;-82
2022/06/26 01:53:25;;;;;;;13.45;10.63;;;18.20;99.90;;;;;;5007921;28;20049;-83
2022/06/26 01:55:51;;;;;;;14.30;10.65;;;18.20;99.90;;;;;;4976323;28;20394;-82
2022/06/26 01:58:17;;;;;;;14.10;10.40;;;18.20;99.90;;;;;;5007774;28;20497;-83
2022/06/26 02:00:44;;;;;;;11.27;9.40;;;18.20;99.90;;;;;;5007864;28;20054;-83
2022/06/26 02:03:11;;;;;;;14.63;9.15;;;18.20;99.90;;;;;;5008167;28;20042;-83
2022/06/26 02:05:37;;;;;;;15.02;9.65;;;18.20;99.90;;;;;;5006919;28;20077;-83
2022/06/26 02:08:04;;;;;;;13.00;8.82;;;18.20;99.90;;;;;;4991555;28;20096;-83
2022/06/26 02:16:06;;;;;;;13.90;8.63;;;18.10;99.90;;;;;;5009118;28;20501;-83
2022/06/26 02:18:32;;;;;;;13.37;8.47;;;18.10;99.90;;;;;;5009004;28;20037;-83
2022/06/26 02:20:59;;;;;;;9.05;6.70;;;18.10;99.90;;;;;;5009147;28;20466;-83
2022/06/26 02:23:24;;;;;;;8.98;6.78;;;18.10;99.90;;;;;;5006918;28;20502;-83
2022/06/26 02:25:50;;;;;;;11.75;7.65;;;18.10;99.90;;;;;;4992023;28;20132;-83
2022/06/26 02:28:16;;;;;;;10.52;7.57;;;18.10;99.90;;;;;;5007558;28;20386;-83
2022/06/26 02:30:42;;;;;;;12.10;6.63;;;18.10;99.90;;;;;;4991227;28;20049;-83
2022/06/26 02:33:08;;;;;;;11.52;6.90;;;18.10;99.90;;;;;;5007912;28;20499;-83
2022/06/26 02:35:34;;;;;;;10.60;6.90;;;18.10;99.90;;;;;;4991223;28;20038;-85
2022/06/26 02:38:00;;;;;;;10.75;6.18;;;18.10;99.90;;;;;;5007677;28;20572;-84
2022/06/26 02:40:29;;;;;;;10.95;5.82;;;18.10;99.90;;;;;;4974938;28;20136;-85
2022/06/26 02:42:55;;;;;;;11.35;6.68;;;18.00;99.90;;;;;;5008356;28;20455;-86
2022/06/26 02:45:21;;;;;;;10.65;6.45;;;18.00;99.90;;;;;;5007518;28;20045;-86
2022/06/26 02:47:48;;;;;;;11.18;5.50;;;18.00;99.90;;;;;;4975275;28;20087;-87
2022/06/26 02:50:14;;;;;;;10.68;6.28;;;17.90;99.90;;;;;;4991672;28;20137;-86
2022/06/26 02:52:40;;;;;;;9.98;6.18;;;17.80;99.90;;;;;;4991197;28;20041;-86
2022/06/26 02:55:07;;;;;;;9.05;5.10;;;17.70;99.90;;;;;;5008190;28;20042;-85
2022/06/26 02:57:32;;;;;;;11.30;6.47;;;17.70;99.90;;;;;;5007664;28;20512;-85
2022/06/26 02:59:58;;;;;;;9.77;6.85;;;17.70;99.90;;;;;;5011213;28;20042;-85
2022/06/26 03:02:24;;;;;;;14.38;6.22;;;17.70;99.90;;;;;;4995050;28;20121;-85
2022/06/26 03:04:51;;;;;;;7.30;5.13;;;17.60;99.90;;;;;;4992000;28;20185;-85
2022/06/26 03:07:18;;;;;;;7.53;5.93;;;17.60;99.90;;;;;;4991874;28;20479;-85
2022/06/26 03:09:43;;;;;;;8.10;4.85;;;17.60;99.90;;;;;;5008940;28;20052;-85
2022/06/26 03:12:09;;;;;;;12.55;5.20;;;17.50;99.90;;;;;;4975759;28;20042;-85
2022/06/26 03:14:35;;;;;;;10.13;4.43;;;17.50;99.90;;;;;;5008811;28;20404;-85
2022/06/26 03:17:02;;;;;;;7.47;4.05;;;17.50;99.90;;;;;;5007987;28;20131;-85
2022/06/26 03:19:27;;;;;;;6.05;3.65;;;17.50;99.90;;;;;;4994027;28;20126;-85
2022/06/26 03:21:53;;;;;;;5.38;3.25;;;17.50;99.90;;;;;;5011927;28;20125;-86
2022/06/26 03:24:20;;;;;;;4.10;3.25;;;17.40;99.90;;;;;;4995508;28;20116;-85
2022/06/26 03:26:46;;;;;;;4.85;3.72;;;17.40;99.90;;;;;;4963339;28;20041;-85
2022/06/26 03:29:12;;;;;;;9.23;3.38;;;17.40;99.90;;;;;;4995176;28;20053;-85
2022/06/26 03:31:39;;;;;;;9.32;3.03;;;17.40;99.90;;;;;;4994536;28;20042;-85
2022/06/26 03:34:05;;;;;;;5.75;3.03;;;17.40;99.90;;;;;;5011870;28;20077;-86
2022/06/26 03:36:32;;;;;;;6.07;2.67;;;17.40;99.90;;;;;;4995442;28;20081;-85
2022/06/26 03:38:58;;;;;;;6.00;3.20;;;17.40;99.90;;;;;;4995928;28;20096;-85
2022/06/26 03:41:25;;;;;;;5.22;2.55;;;17.40;99.90;;;;;;4995398;28;20141;-85
2022/06/26 03:43:54;;;;;;;3.85;2.80;;;17.40;99.90;;;;;;5013257;28;20504;-85
2022/06/26 03:46:20;;;;;;;5.43;2.88;;;17.40;99.90;;;;;;5014545;28;20045;-84
2022/06/26 03:48:46;;;;;;;5.50;2.97;;;17.40;99.90;;;;;;5010717;28;20046;-86
2022/06/26 03:51:12;;;;;;;2.95;2.50;;;17.40;99.90;;;;;;5011580;28;20061;-85
2022/06/26 03:53:38;;;;;;;6.72;2.72;;;17.40;99.90;;;;;;4978178;28;20042;-86
2022/06/26 03:56:04;;;;;;;5.40;2.67;;;17.40;99.90;;;;;;5014541;28;20527;-84
2022/06/26 03:58:30;;;;;;;2.97;2.20;;;17.40;99.90;;;;;;5013868;28;20459;-86
2022/06/26 04:00:56;;;;;;;5.53;2.70;;;17.40;99.90;;;;;;4997935;28;20389;-86
2022/06/26 04:03:21;;;;;;;4.70;2.55;;;17.40;99.90;;;;;;4998233;28;20052;-85
2022/06/26 04:05:47;;;;;;;4.22;2.33;;;17.40;99.90;;;;;;4981713;28;20045;-85
2022/06/26 04:08:14;;;;;;;3.53;2.08;;;17.40;99.90;;;;;;5015260;28;20049;-85
2022/06/26 04:10:40;;;;;;;3.08;2.00;;;17.40;99.90;;;;;;5014095;28;20084;-85
2022/06/26 04:13:08;;;;;;;6.10;2.33;;;18.10;99.90;;;;;;4998885;28;20046;-86
2022/06/26 04:15:35;;;;;;;2.90;1.73;;;17.40;99.90;;;;;;5019810;28;20054;-86
2022/06/26 04:18:02;;;;;;;3.30;1.95;;;17.40;99.90;;;;;;5015059;28;20058;-86
2022/06/26 04:20:29;;;;;;;3.78;1.88;;;17.40;99.90;;;;;;4995191;28;20054;-86
2022/06/26 04:22:55;;;;;;;3.05;1.85;;;17.40;99.90;;;;;;5010306;28;20129;-86
2022/06/26 04:25:21;;;;;;;4.07;2.05;;;17.40;99.90;;;;;;5011606;28;20038;-86
2022/06/26 04:27:47;;;;;;;3.58;2.13;;;17.40;99.90;;;;;;5007748;28;20628;-86
2022/06/26 04:30:12;;;;;;;3.45;2.00;;;17.40;99.90;;;;;;5009610;28;20045;-86
2022/06/26 04:32:38;;;;;;;2.33;2.00;;;17.50;99.90;;;;;;4992435;28;20092;-86
2022/06/26 04:35:04;;;;;;;3.42;1.95;;;17.50;99.90;;;;;;4991872;28;20140;-86
2022/06/26 04:37:29;;;;;;;3.28;2.03;;;17.50;99.90;;;;;;4992508;28;20096;-86
2022/06/26 04:39:55;;;;;;;3.35;2.10;;;17.50;99.90;;;;;;4990992;28;20125;-86
2022/06/26 04:42:21;;;;;;;4.82;2.08;;;17.50;99.90;;;;;;4992415;28;20053;-86
2022/06/26 04:44:46;;;;;;;2.47;1.70;;;17.60;99.90;;;;;;5008822;28;20041;-86
2022/06/26 04:47:12;;;;;;;3.75;1.65;;;17.60;99.90;;;;;;4992865;28;20049;-86
2022/06/26 04:49:38;;;;;;;2.20;2.00;;;17.50;99.90;;;;;;5007880;28;20125;-85
2022/06/26 04:52:04;;;;;;;2.72;2.17;;;17.60;99.90;;;;;;4991494;28;20045;-86
2022/06/26 04:54:30;;;;;;;3.58;2.30;;;17.60;99.90;;;;;;4959979;28;20527;-86
2022/06/26 04:56:55;;;;;;;4.68;2.13;;;17.60;99.90;;;;;;4977728;28;20042;-86
2022/06/26 04:59:21;;;;;;;2.70;2.45;;;17.70;99.90;;;;;;4978376;28;20050;-86
2022/06/26 05:01:47;;;;;;;3.45;2.28;;;17.70;99.90;;;;;;4991126;28;20042;-86
2022/06/26 05:04:13;;;;;;;4.63;2.70;;;17.70;99.90;;;;;;4992214;28;20041;-86
2022/06/26 05:06:39;;;;;;;6.07;2.47;;;17.70;99.90;;;;;;4975583;28;20041;-86
2022/06/26 05:09:04;;;;;;;5.78;2.63;;;18.30;99.90;;;;;;4974847;28;20477;-86
2022/06/26 05:11:30;;;;;;;4.97;2.83;;;17.80;99.90;;;;;;4990932;28;20057;-85
2022/06/26 05:13:56;;;;;;;3.75;2.58;;;17.80;99.90;;;;;;5006696;28;20048;-86
2022/06/26 05:16:22;;;;;;;3.95;3.47;;;17.90;99.90;;;;;;4991015;28;20523;-86
2022/06/26 05:18:48;;;;;;;3.38;2.92;;;17.90;99.90;;;;;;4989589;28;20042;-88
2022/06/26 05:21:14;;;;;;;5.85;3.08;;;18.20;99.90;;;;;;4976095;28;20453;-87
2022/06/26 05:23:39;;;;;;;4.50;2.78;;;18.00;99.90;;;;;;5007632;28;20546;-88
2022/06/26 05:26:06;;;;;;;2.60;2.22;;;18.10;99.90;;;;;;5009854;28;20064;-87
2022/06/26 05:28:32;;;;;;;6.18;2.97;;;18.10;99.90;;;;;;5007755;28;20049;-87
2022/06/26 05:30:58;;;;;;;5.68;3.00;;;18.10;99.90;;;;;;5007268;28;20064;-88
2022/06/26 05:33:24;;;;;;;4.75;3.20;;;18.10;99.90;;;;;;5007897;28;20053;-88
2022/06/26 05:35:49;;;;;;;4.03;3.17;;;18.20;99.90;;;;;;5005745;28;20041;-89
2022/06/26 05:38:15;;;;;;;5.18;3.55;;;18.30;99.90;;;;;;5008626;28;20038;-88
2022/06/26 05:40:41;;;;;;;4.43;3.45;;;18.30;99.90;;;;;;5004802;28;20572;-88
2022/06/26 05:43:06;;;;;;;4.60;3.33;;;18.30;99.90;;;;;;5006844;28;20332;-87
2022/06/26 05:45:32;;;;;;;4.53;3.30;;;18.30;99.90;;;;;;5007666;28;20384;-87
2022/06/26 05:47:58;;;;;;;5.47;3.53;;;18.30;99.90;;;;;;5005473;28;20460;-88
2022/06/26 05:50:24;;;;;;;5.85;3.72;;;18.20;99.90;;;;;;5006455;28;20050;-87
2022/06/26 05:52:49;;;;;;;4.57;3.55;;;18.20;99.90;;;;;;5005130;28;20497;-87
2022/06/26 05:55:15;;;;;;;5.75;3.78;;;18.20;99.90;;;;;;5008445;28;20091;-88
2022/06/26 05:57:41;;;;;;;4.65;3.58;;;18.20;99.90;;;;;;5006722;28;20130;-88
2022/06/26 06:00:08;;;;;;;6.10;4.53;;;18.20;99.90;;;;;;5006693;28;20085;-87
2022/06/26 06:02:33;;;;;;;5.70;5.10;;;18.30;99.90;;;;;;5005556;28;20042;-88
2022/06/26 06:04:59;;;;;;;6.10;4.88;;;18.30;99.90;;;;;;5005454;28;20046;-87
2022/06/26 06:07:25;;;;;;;6.78;4.75;;;18.40;99.90;;;;;;5006364;28;20042;-86
2022/06/26 06:09:50;;;;;;;9.63;5.00;;;18.50;99.90;;;;;;5004768;28;20045;-87
2022/06/26 06:12:16;;;;;;;6.00;4.63;;;18.50;99.90;;;;;;5006460;28;20034;-88
2022/06/26 06:14:42;;;;;;;7.85;4.60;;;18.40;99.90;;;;;;5004610;28;20416;-86
2022/06/26 06:19:52;;;;;;;7.05;5.40;;;18.40;99.90;;;;;;5005157;28;20428;-87
2022/06/26 06:22:17;;;;;;;6.82;5.68;;;18.40;99.90;;;;;;4989127;28;20041;-88
2022/06/26 06:24:43;;;;;;;6.75;5.38;;;18.40;99.90;;;;;;4989358;28;20394;-88
2022/06/26 06:27:09;;;;;;;7.60;6.20;;;18.40;99.90;;;;;;5004865;28;20131;-88
2022/06/26 06:29:34;;;;;;;9.20;6.75;;;18.60;99.90;;;;;;5006036;28;20050;-88
2022/06/26 06:32:00;;;;;;;11.35;6.10;;;18.50;99.90;;;;;;4972021;28;20112;-89
2022/06/26 06:34:26;;;;;;;8.52;6.60;;;18.50;99.90;;;;;;4989160;28;20045;-88
2022/06/26 06:36:52;;;;;;;9.40;7.47;;;18.60;99.90;;;;;;4973057;28;20054;-88
2022/06/26 06:39:18;;;;;;;10.93;7.80;;;18.60;99.90;;;;;;5005832;28;20137;-88
2022/06/26 06:41:43;;;;;;;10.57;7.47;;;18.60;99.90;;;;;;4989436;28;20062;-87
2022/06/26 06:44:09;;;;;;;9.73;8.10;;;18.80;99.90;;;;;;5005935;28;20038;-87
2022/06/26 06:46:35;;;;;;;9.52;8.52;;;18.90;99.90;;;;;;5006027;28;20092;-88
2022/06/26 06:49:00;;;;;;;10.15;7.53;;;18.90;99.90;;;;;;5005828;28;20544;-88
2022/06/26 06:51:26;;;;;;;13.07;7.95;;;18.90;99.90;;;;;;4990383;28;20088;-87
2022/06/26 06:53:52;;;;;;;11.40;9.00;;;19.00;99.90;;;;;;5014990;28;20045;-87
2022/06/26 06:56:18;;;;;;;9.95;8.07;;;19.00;99.90;;;;;;4982680;28;20046;-87
2022/06/26 06:58:43;;;;;;;10.88;9.02;;;19.20;99.90;;;;;;5012067;28;20046;-87
2022/06/26 07:01:09;;;;;;;9.50;8.50;;;19.30;99.90;;;;;;5011143;28;20042;-88
2022/06/26 07:03:35;;;;;;;11.02;9.10;;;19.30;99.90;;;;;;4995612;28;20049;-87
2022/06/26 07:06:00;;;;;;;10.68;8.90;;;19.40;99.90;;;;;;5010937;28;20050;-89
2022/06/26 07:08:26;;;;;;;9.80;8.80;;;19.40;99.90;;;;;;4996129;28;20053;-88
2022/06/26 07:10:52;;;;;;;11.25;8.10;;;19.40;99.90;;;;;;4994462;28;20532;-88
2022/06/26 07:13:17;;;;;;;11.23;10.13;;;19.40;99.90;;;;;;4995061;28;20045;-89
2022/06/26 07:15:43;;;;;;;13.68;10.13;;;19.40;99.90;;;;;;4978745;28;20101;-88
2022/06/26 07:18:09;;;;;;;12.57;9.98;;;19.50;99.90;;;;;;5010619;28;20126;-87
2022/06/26 07:20:34;;;;;;;13.32;10.07;;;19.70;99.90;;;;;;4979248;28;20077;-86
2022/06/26 07:23:00;;;;;;;11.50;9.25;;;20.00;99.90;;;;;;4994337;28;20050;-86
2022/06/26 07:25:26;;;;;;;10.05;8.75;;;20.20;99.90;;;;;;4979711;28;20425;-85
2022/06/26 07:27:52;;;;;;;11.00;9.90;;;20.40;99.90;;;;;;5010961;28;20046;-86
2022/06/26 07:30:19;;;;;;;13.15;10.57;;;20.60;99.90;;;;;;5011392;28;20068;-86
2022/06/26 07:32:45;;;;;;;12.75;9.63;;;20.50;99.90;;;;;;4979415;28;20049;-89
2022/06/26 07:35:11;;;;;;;12.32;10.77;;;20.40;99.90;;;;;;4994943;28;20046;-88
2022/06/26 07:37:37;;;;;;;12.57;10.80;;;20.30;99.90;;;;;;4996103;28;20100;-89
2022/06/26 07:40:04;;;;;;;12.45;10.88;;;20.10;99.90;;;;;;5012373;28;20152;-92
2022/06/26 07:42:30;;;;;;;14.45;11.70;;;20.00;99.90;;;;;;4981325;28;20452;-87
2022/06/26 07:44:56;;;;;;;13.65;12.20;;;20.00;99.90;;;;;;4980666;28;20072;-95
2022/06/26 07:47:21;;;;;;;13.45;11.50;;;20.00;99.90;;;;;;4980772;28;20492;-92
2022/06/26 07:49:47;;;;;;;18.10;12.82;;;20.00;99.90;;;;;;4979506;28;20137;-92
2022/06/26 07:52:17;;;;;;;13.70;12.02;;;20.00;99.90;;;;;;4982881;28;20046;-95
2022/06/26 07:54:43;;;;;;;15.43;12.60;;;20.10;99.90;;;;;;5002600;28;20042;-92
2022/06/26 07:57:12;;;;;;;15.32;11.32;;;20.10;99.90;;;;;;5001544;28;20057;-88
2022/06/26 07:59:37;;;;;;;15.32;12.32;;;20.10;99.90;;;;;;5002031;28;20056;-93
2022/06/26 08:02:04;;;;;;;14.60;13.07;;;20.20;99.90;;;;;;4983439;28;20046;-94
2022/06/26 08:04:31;;;;;;;14.32;12.82;;;20.00;99.90;;;;;;4983820;28;20134;-95
2022/06/26 08:06:57;;;;;;;15.77;12.90;;;20.30;99.90;;;;;;5000872;28;20138;-93
2022/06/26 08:09:23;;;;;;;16.40;13.60;;;20.40;99.90;;;;;;4985081;28;20042;-95
2022/06/26 08:11:49;;;;;;;14.82;13.18;;;21.10;99.90;;;;;;4989030;28;20041;-96
2022/06/26 08:14:16;;;;;;;16.15;12.77;;;20.40;99.90;;;;;;4987770;28;20053;-96
2022/06/26 08:16:41;;;;;;;11.07;9.38;;;20.30;99.90;;;;;;5002526;28;20050;-95
2022/06/26 08:19:07;;;;;;;11.77;9.95;;;20.30;99.90;;;;;;5004772;28;20077;-96
2022/06/26 08:22:00;;;;;;;11.07;9.10;;;20.30;99.90;;;;;;5004545;28;20050;-94
2022/06/26 08:24:26;;;;;;;12.38;8.93;;;20.50;99.90;;;;;;5002520;28;20097;-95
2022/06/26 08:26:54;;;;;;;10.85;7.97;;;20.60;99.90;;;;;;4973538;28;20077;-95
2022/06/26 08:29:23;;;;;;;10.32;7.88;;;20.90;99.90;;;;;;5006026;28;20050;-96
2022/06/26 08:31:49;;;;;;;11.60;7.78;;;21.10;99.90;;;;;;5006827;28;20056;-96
2022/06/26 08:34:15;;;;;;;10.57;8.95;;;21.40;99.90;;;;;;4999614;28;20038;-92
2022/06/26 08:36:41;;;;;;;9.25;7.30;;;21.20;99.90;;;;;;4979319;28;20385;-95
2022/06/26 08:39:09;;;;;;;8.05;6.32;;;21.30;99.90;;;;;;4966055;28;20048;-93
2022/06/26 08:41:40;;;;;;;8.10;5.15;;;21.40;99.90;;;;;;4999810;28;20108;-96
2022/06/26 08:44:07;;;;;;;7.53;5.57;;;21.40;99.90;;;;;;4981235;28;20073;-96
2022/06/26 08:46:38;;;;;;;9.75;6.68;;;21.30;99.90;;;;;;4977581;28;20061;-89
2022/06/26 08:49:11;;;;;;;8.20;5.68;;;21.40;99.90;;;;;;4996444;28;20053;-96
2022/06/26 08:51:43;;;;;;;7.53;5.95;;;21.30;99.90;;;;;;5005075;28;20042;-94
2022/06/26 08:54:12;;;;;;;7.38;4.57;;;21.50;99.90;;;;;;4999568;28;20041;-96
2022/06/26 08:56:41;;;;;;;7.68;5.40;;;21.70;99.90;;;;;;4995072;28;20478;-93
2022/06/26 08:59:08;;;;;;;6.93;5.20;;;21.80;99.90;;;;;;4991136;28;20050;-87
2022/06/26 09:01:35;;;;;;;6.35;4.72;;;21.90;99.90;;;;;;5008264;28;20042;-96
2022/06/26 09:04:00;;;;;;;8.70;4.63;;;21.80;99.90;;;;;;4975388;28;20097;-90
2022/06/26 09:06:26;;;;;;;6.05;4.78;;;21.90;99.90;;;;;;4993278;28;20047;-89
2022/06/26 09:08:52;;;;;;;7.13;4.35;;;22.00;99.90;;;;;;4990756;28;20049;-88
2022/06/26 09:11:19;;;;;;;5.10;3.45;;;22.10;99.90;;;;;;4975297;28;20050;-87
2022/06/26 09:13:46;;;;;;;8.10;3.63;;;22.00;99.90;;;;;;4989680;28;20048;-87
2022/06/26 09:16:13;;;;;;;5.07;4.15;;;21.90;99.90;;;;;;5005041;28;20155;-88
2022/06/26 09:18:41;;;;;;;4.15;3.25;;;21.70;99.90;;;;;;4974390;28;20053;-89
2022/06/26 09:21:09;;;;;;;6.35;3.92;;;21.50;99.90;;;;;;4990429;28;20034;-91
2022/06/26 09:23:36;;;;;;;6.53;3.70;;;21.40;99.90;;;;;;4974819;28;20041;-89
2022/06/26 09:26:03;;;;;;;5.97;3.28;;;21.30;99.90;;;;;;4990599;28;20137;-95
2022/06/26 09:28:29;;;;;;;3.85;2.33;;;21.20;99.90;;;;;;4989700;28;20030;-95
2022/06/26 09:31:04;;;;;;;5.30;2.28;;;21.20;99.90;;;;;;4973568;28;20053;-89
2022/06/26 09:33:35;;;;;;;4.05;2.53;;;21.20;99.90;;;;;;4990202;28;20570;-87
2022/06/26 09:36:04;;;;;;;4.25;2.03;;;21.30;99.90;;;;;;4989973;28;20180;-87
2022/06/26 09:38:34;;;;;;;4.22;2.55;;;21.40;99.90;;;;;;5005673;28;20077;-87
2022/06/26 09:41:05;;;;;;;2.85;2.55;;;21.60;99.90;;;;;;4990409;28;20052;-86
2022/06/26 09:43:32;;;;;;;5.53;3.03;;;21.90;99.90;;;;;;4992017;28;20034;-95
2022/06/26 09:46:00;;;;;;;6.43;3.33;;;22.10;99.90;;;;;;4992459;28;20084;-92
2022/06/26 09:48:27;;;;;;;3.42;1.80;;;22.20;99.90;;;;;;4993060;28;20049;-96
2022/06/26 09:50:54;;;;;;;0.88;0.60;;;22.10;99.90;;;;;;4979448;28;20054;-91
2022/06/26 09:53:21;;;;;;;3.92;1.30;;;22.00;99.90;;;;;;4975620;28;20068;-92
2022/06/26 09:55:49;;;;;;;2.72;1.23;;;21.80;99.90;;;;;;4990428;28;20049;-94
2022/06/26 09:58:15;;;;;;;6.65;1.35;;;22.20;99.90;;;;;;4959889;28;20084;-96
2022/06/26 10:00:42;;;;;;;7.90;1.60;;;22.40;99.90;;;;;;4973060;28;20038;-93
2022/06/26 10:08:43;;;;;;;3.90;1.55;;;22.80;99.90;;;;;;5006089;28;20137;-88
2022/06/26 10:11:10;;;;;;;2.08;1.33;;;22.90;99.90;;;;;;4990105;28;20088;-89
2022/06/26 10:13:39;;;;;;;2.92;1.23;;;22.90;99.90;;;;;;4973662;28;20053;-86
2022/06/26 10:16:08;;;;;;;1.33;1.00;;;22.70;99.90;;;;;;4972647;28;20046;-87
2022/06/26 10:18:55;;;;;;;3.75;1.40;;;22.70;99.90;;;;;;5014397;28;20072;-85
2022/06/26 10:21:21;;;;;;;3.05;1.33;;;22.70;99.90;;;;;;5015568;28;20347;-88
2022/06/26 10:23:47;;;;;;;2.38;1.00;;;22.80;99.90;;;;;;5019585;28;20319;-87
2022/06/26 10:26:21;;;;;;;3.83;1.40;;;22.90;99.90;;;;;;4980407;28;20132;-84
2022/06/26 10:28:59;;;;;;;3.28;1.38;;;22.90;99.90;;;;;;4991028;28;20125;-93
2022/06/26 10:31:25;;;;;;;1.95;1.52;;;23.00;99.90;;;;;;5004688;28;20077;-86
2022/06/26 10:33:51;;;;;;;2.33;0.90;;;23.00;99.90;;;;;;5004527;28;20053;-88
2022/06/26 10:36:22;;;;;;;2.17;0.85;;;23.00;99.90;;;;;;4987792;28;20038;-87
2022/06/26 10:38:48;;;;;;;2.67;1.10;;;23.10;99.90;;;;;;5004879;28;20049;-87
2022/06/26 10:44:10;;;;;;;1.13;0.95;;;23.10;99.90;;;;;;5003591;28;20053;-90
2022/06/26 10:46:36;;;;;;;2.45;1.10;;;23.20;99.90;;;;;;5005205;28;20089;-87
2022/06/26 10:49:06;;;;;;;2.20;1.13;;;23.20;99.90;;;;;;5005460;28;20058;-87
2022/06/26 10:51:32;;;;;;;3.13;1.05;;;23.20;99.90;;;;;;4987827;28;20096;-89
2022/06/26 10:53:57;;;;;;;2.33;1.10;;;23.20;99.90;;;;;;4972187;28;20077;-88
2022/06/26 10:56:23;;;;;;;3.88;1.13;;;23.20;99.90;;;;;;4971783;28;20559;-92
2022/06/26 10:58:59;;;;;;;2.38;0.98;;;23.30;99.90;;;;;;4957596;28;20064;-92
2022/06/26 11:01:26;;;;;;;2.15;1.10;;;23.40;99.90;;;;;;4988400;28;20393;-90
2022/06/26 11:03:52;;;;;;;2.50;1.25;;;23.50;99.90;;;;;;4972558;28;20556;-93
2022/06/26 11:06:17;;;;;;;3.05;1.15;;;23.60;99.90;;;;;;4972468;28;20073;-92
2022/06/26 11:08:43;;;;;;;3.55;1.50;;;23.60;99.90;;;;;;4974180;28;20568;-92
2022/06/26 11:11:14;;;;;;;1.27;0.98;;;23.70;99.90;;;;;;5005948;28;20050;-95
2022/06/26 11:13:59;;;;;;;3.00;1.25;;;23.70;99.90;;;;;;5004635;28;20544;-88
2022/06/26 11:16:47;;;;;;;3.58;1.45;;;23.60;99.90;;;;;;5005294;28;20125;-92
2022/06/26 11:19:25;;;;;;;1.92;1.02;;;23.70;99.90;;;;;;5004218;28;20061;-91
2022/06/26 11:22:09;;;;;;;2.25;1.08;;;23.70;99.90;;;;;;4972477;28;20412;-92
2022/06/26 11:24:36;;;;;;;1.70;1.08;;;23.70;99.90;;;;;;4990569;28;20080;-92
2022/06/26 11:27:02;;;;;;;3.20;1.10;;;23.80;99.90;;;;;;4986830;28;20054;-88
2022/06/26 11:29:28;;;;;;;1.38;1.00;;;23.90;99.90;;;;;;4955463;28;20563;-88
2022/06/26 11:31:54;;;;;;;3.55;1.15;;;24.20;99.90;;;;;;4987093;28;20038;-88
2022/06/26 11:34:20;;;;;;;4.65;1.30;;;24.30;99.90;;;;;;4987533;28;20042;-87
2022/06/26 11:36:50;;;;;;;3.70;0.95;;;24.50;99.90;;;;;;4987880;28;20115;-84
2022/06/26 11:39:17;;;;;;;2.58;1.48;;;24.60;99.50;;;;;;4971216;28;20045;-87
2022/06/26 11:41:43;;;;;;;3.90;1.45;;;24.60;99.70;;;;;;4991718;28;20052;-88
2022/06/26 11:44:12;;;;;;;1.63;0.82;;;24.50;99.70;;;;;;4974295;28;20085;-87
2022/06/26 11:46:38;;;;;;;2.20;1.27;;;24.50;99.90;;;;;;4991570;28;20488;-90
2022/06/26 11:49:04;;;;;;;2.88;1.20;;;24.30;99.90;;;;;;4975618;28;20384;-92
2022/06/26 11:51:31;;;;;;;3.17;1.60;;;24.30;99.90;;;;;;4990586;28;20184;-89
2022/06/26 11:53:58;;;;;;;2.95;0.93;;;24.30;99.90;;;;;;5007611;28;20084;-87
2022/06/26 11:56:27;;;;;;;2.10;1.30;;;24.30;99.90;;;;;;5006464;28;20041;-89
2022/06/26 11:58:55;;;;;;;1.67;1.00;;;24.40;99.90;;;;;;4994736;28;20046;-92
2022/06/26 12:01:29;;;;;;;4.32;1.30;;;24.50;99.90;;;;;;4993826;28;20050;-87
2022/06/26 12:03:55;;;;;;;3.13;1.30;;;24.60;99.90;;;;;;4993554;28;20106;-89
2022/06/26 12:06:35;;;;;;;2.10;0.98;;;24.60;99.90;;;;;;4993095;28;20046;-87
2022/06/26 12:09:25;;;;;;;2.55;1.13;;;24.60;99.80;;;;;;5009019;28;20049;-89
2022/06/26 12:11:53;;;;;;;2.42;1.10;;;24.50;99.60;;;;;;5011049;28;20057;-90
2022/06/26 12:14:22;;;;;;;3.85;0.80;;;24.40;99.90;;;;;;4998048;28;20072;-94
2022/06/26 12:16:53;;;;;;;2.03;0.98;;;24.40;99.60;;;;;;4999923;28;20065;-90
2022/06/26 12:19:20;;;;;;;3.33;1.08;;;24.40;99.40;;;;;;4996714;28;20053;-87
2022/06/26 12:21:47;;;;;;;4.43;1.13;;;24.40;99.80;;;;;;4961316;28;20042;-91
2022/06/26 12:24:15;;;;;;;2.97;1.00;;;24.40;98.90;;;;;;4977822;28;20042;-88
2022/06/26 12:26:42;;;;;;;3.83;1.20;;;24.40;99.10;;;;;;4974452;28;20057;-91
2022/06/26 12:29:13;;;;;;;2.17;0.90;;;24.40;99.10;;;;;;4994602;28;20145;-91
2022/06/26 12:31:39;;;;;;;4.78;1.27;;;24.40;99.60;;;;;;4993056;28;20405;-91
2022/06/26 12:34:06;;;;;;;1.92;1.20;;;24.40;99.70;;;;;;4977510;28;20054;-91
2022/06/26 12:36:33;;;;;;;2.38;0.73;;;24.40;99.90;;;;;;4977156;28;20038;-91
2022/06/26 12:39:01;;;;;;;3.67;0.95;;;24.50;99.90;;;;;;4976298;28;20095;-91
2022/06/26 12:41:27;;;;;;;3.22;1.10;;;24.60;99.30;;;;;;4994683;28;20049;-90
2022/06/26 12:43:55;;;;;;;3.20;1.48;;;24.60;98.80;;;;;;4997560;28;20050;-91
2022/06/26 12:46:22;;;;;;;1.83;0.80;;;24.70;98.80;;;;;;4997737;28;20037;-93
2022/06/26 12:48:48;;;;;;;2.78;0.95;;;24.80;98.50;;;;;;4993736;28;20374;-90
2022/06/26 12:51:14;;;;;;;3.88;0.90;;;24.70;97.90;;;;;;4961553;28;20049;-91
2022/06/26 12:53:41;;;;;;;3.05;1.00;;;24.60;97.90;;;;;;4993864;28;20045;-89
2022/06/26 12:56:07;;;;;;;2.65;0.90;;;24.60;98.30;;;;;;4993212;28;20042;-91